Time;durP1;ratioP1;P1;durP2;ratioP2;P2;SDS_P1;SDS_P2;PMS_P1;PMS_P2;Temp;Humidity;BMP_temperature;BMP_pressure;BME280_temperature;BME280_humidity;BME280_pressure;Samples;Min_cycle;Max_cycle;Signal;HPM_P1;HPM_P2
2021/11/17 02:27:13;;;;;;;57.42;25.15;;;7.10;88.70;;;;;;5092011;28;20504;-69
2021/11/17 02:29:51;;;;;;;59.72;25.40;;;7.10;88.80;;;;;;5073598;28;20490;-69
2021/11/17 02:32:29;;;;;;;60.40;27.02;;;7.10;89.00;;;;;;5092360;28;20029;-69
2021/11/17 02:35:13;;;;;;;61.55;26.13;;;7.10;89.00;;;;;;5075696;28;20051;-69
2021/11/17 02:37:53;;;;;;;66.70;27.98;;;7.10;89.00;;;;;;5112726;28;20024;-69
2021/11/17 02:40:28;;;;;;;60.15;25.30;;;7.10;89.00;;;;;;5077053;28;20106;-68
2021/11/17 02:43:05;;;;;;;69.47;27.50;;;7.10;89.10;;;;;;5071374;28;20025;-69
2021/11/17 02:45:56;;;;;;;64.25;27.55;;;7.20;89.10;;;;;;5089883;28;20764;-69
2021/11/17 02:48:44;;;;;;;63.35;27.30;;;7.20;88.80;;;;;;5110272;28;20016;-68
2021/11/17 02:51:40;;;;;;;68.05;28.45;;;7.20;88.90;;;;;;5076269;28;20019;-68
2021/11/17 02:54:33;;;;;;;64.53;26.40;;;7.20;88.90;;;;;;5096840;28;20029;-69
2021/11/17 02:57:08;;;;;;;59.38;25.33;;;7.20;88.70;;;;;;5071522;28;20360;-69
2021/11/17 02:59:46;;;;;;;54.25;25.52;;;7.20;89.20;;;;;;5081207;28;20088;-69
2021/11/17 03:02:18;;;;;;;57.88;25.30;;;7.20;88.70;;;;;;5100185;28;20020;-69
2021/11/17 03:04:46;;;;;;;65.88;26.52;;;7.20;88.80;;;;;;5111769;28;20032;-69
2021/11/17 03:07:37;;;;;;;59.17;26.02;;;7.20;88.60;;;;;;5077001;28;20487;-68
2021/11/17 03:10:23;;;;;;;56.83;24.70;;;7.20;88.40;;;;;;5091173;28;20486;-68
2021/11/17 03:12:57;;;;;;;59.28;25.00;;;7.20;88.50;;;;;;5059373;28;20036;-68
2021/11/17 03:15:39;;;;;;;58.88;25.98;;;7.20;88.40;;;;;;5103185;28;20142;-69
2021/11/17 03:18:41;;;;;;;56.75;23.52;;;7.20;88.60;;;;;;5110526;28;20110;-68
2021/11/17 03:21:25;;;;;;;57.28;25.33;;;7.20;88.60;;;;;;4992673;28;20391;-68
2021/11/17 03:24:00;;;;;;;57.30;25.02;;;7.20;88.70;;;;;;5084680;28;20502;-68
2021/11/17 03:26:53;;;;;;;58.35;25.23;;;7.20;88.70;;;;;;5091255;28;20028;-69
2021/11/17 03:29:37;;;;;;;54.70;24.17;;;7.20;88.70;;;;;;5074671;28;20027;-68
2021/11/17 03:32:22;;;;;;;56.58;24.65;;;7.30;88.60;;;;;;5111338;28;20026;-66
2021/11/17 03:35:09;;;;;;;59.83;25.75;;;7.30;88.50;;;;;;5058523;28;20036;-68
2021/11/17 03:38:29;;;;;;;65.57;27.63;;;7.30;88.50;;;;;;5090741;28;20114;-69
2021/11/17 03:41:17;;;;;;;61.67;25.98;;;7.30;88.40;;;;;;5007107;28;20034;-68
2021/11/17 03:44:08;;;;;;;59.97;26.45;;;7.30;88.40;;;;;;5108267;28;20065;-68
2021/11/17 03:47:16;;;;;;;55.72;23.83;;;7.30;88.40;;;;;;5110885;28;20035;-68
2021/11/17 03:49:51;;;;;;;62.38;25.95;;;7.30;88.40;;;;;;5089428;28;20031;-67
2021/11/17 03:52:28;;;;;;;54.25;25.02;;;7.30;88.40;;;;;;5106627;28;20028;-68
2021/11/17 03:55:32;;;;;;;52.38;23.55;;;7.30;88.40;;;;;;5072490;28;20033;-68
2021/11/17 03:58:06;;;;;;;59.13;25.35;;;7.30;88.30;;;;;;5052971;28;20047;-68
2021/11/17 04:01:12;;;;;;;59.70;25.70;;;7.30;88.30;;;;;;5069483;28;20368;-68
2021/11/17 04:03:56;;;;;;;59.33;25.48;;;7.30;88.40;;;;;;5074216;28;20467;-68
2021/11/17 04:06:32;;;;;;;53.95;23.92;;;7.30;88.20;;;;;;5089729;28;20024;-68
2021/11/17 04:09:26;;;;;;;51.40;22.90;;;7.30;88.30;;;;;;5092142;28;20039;-68
2021/11/17 04:12:10;;;;;;;53.83;24.70;;;7.40;88.40;;;;;;5052378;28;20422;-68
2021/11/17 04:14:35;;;;;;;54.90;24.83;;;7.30;88.20;;;;;;5080440;28;20066;-68
2021/11/17 04:17:07;;;;;;;49.05;23.17;;;7.30;88.30;;;;;;5090333;28;20032;-68
2021/11/17 04:19:59;;;;;;;56.53;25.90;;;7.30;88.30;;;;;;5091339;28;20544;-68
2021/11/17 04:22:41;;;;;;;51.78;24.17;;;7.40;88.40;;;;;;5092414;28;20119;-69
2021/11/17 04:25:39;;;;;;;55.90;25.00;;;7.40;88.30;;;;;;5084651;28;20035;-67
2021/11/17 04:28:26;;;;;;;53.65;26.20;;;7.40;88.20;;;;;;5093939;28;20082;-68
2021/11/17 04:31:15;;;;;;;53.13;24.70;;;7.40;88.20;;;;;;5110098;28;20052;-68
2021/11/17 04:34:04;;;;;;;54.05;25.33;;;7.40;88.20;;;;;;5109620;28;20035;-69
2021/11/17 04:36:54;;;;;;;55.08;24.27;;;7.40;88.20;;;;;;5072680;28;20070;-68
2021/11/17 04:39:32;;;;;;;53.25;24.88;;;7.40;88.30;;;;;;5088196;28;20024;-68
2021/11/17 04:42:16;;;;;;;53.65;25.23;;;7.40;88.20;;;;;;5084324;28;20031;-68
2021/11/17 04:45:04;;;;;;;52.80;25.15;;;7.40;88.20;;;;;;5072888;28;20059;-68
2021/11/17 04:47:38;;;;;;;56.50;25.45;;;7.40;88.20;;;;;;5090091;28;20020;-69
2021/11/17 04:50:36;;;;;;;48.22;22.17;;;7.40;88.20;;;;;;5089607;28;20510;-69
2021/11/17 04:53:18;;;;;;;52.50;24.75;;;7.50;88.20;;;;;;5033865;28;20051;-69
2021/11/17 04:55:46;;;;;;;54.50;24.42;;;7.50;88.20;;;;;;5071290;28;20031;-69
2021/11/17 04:58:24;;;;;;;57.67;24.35;;;7.40;88.20;;;;;;5101963;28;20077;-69
2021/11/17 05:01:27;;;;;;;55.30;25.13;;;7.40;88.30;;;;;;5109582;28;20016;-69
2021/11/17 05:04:00;;;;;;;54.53;24.63;;;7.40;88.30;;;;;;5092694;28;20028;-69
2021/11/17 05:06:44;;;;;;;54.00;23.85;;;7.40;88.40;;;;;;5075784;28;20016;-69
2021/11/17 05:09:15;;;;;;;52.35;23.27;;;7.50;88.40;;;;;;5088812;28;20020;-69
2021/11/17 05:11:56;;;;;;;62.35;26.58;;;7.50;88.40;;;;;;5088847;28;20127;-69
2021/11/17 05:14:21;;;;;;;59.05;25.35;;;7.50;88.50;;;;;;5070583;28;20068;-69
2021/11/17 05:16:56;;;;;;;52.83;23.83;;;7.50;88.50;;;;;;5089475;28;20136;-70
2021/11/17 05:19:44;;;;;;;54.97;24.58;;;7.50;88.50;;;;;;5070490;28;20036;-70
2021/11/17 05:22:21;;;;;;;54.97;23.55;;;7.50;88.40;;;;;;5069709;28;20032;-69
2021/11/17 05:24:50;;;;;;;47.83;23.38;;;7.50;88.40;;;;;;5088654;28;20386;-69
2021/11/17 05:27:25;;;;;;;54.40;24.55;;;7.50;88.40;;;;;;5069968;28;20036;-69
2021/11/17 05:30:00;;;;;;;51.58;22.15;;;7.50;88.50;;;;;;5070259;28;20020;-70
2021/11/17 05:32:37;;;;;;;54.70;24.13;;;7.50;88.40;;;;;;5081725;28;20024;-69
2021/11/17 05:35:23;;;;;;;55.33;24.60;;;7.50;88.30;;;;;;5088793;28;20078;-69
2021/11/17 05:38:08;;;;;;;54.55;24.23;;;7.50;88.30;;;;;;5087192;28;20031;-69
2021/11/17 05:41:01;;;;;;;55.20;22.42;;;7.50;88.40;;;;;;5070811;28;20025;-69
2021/11/17 05:43:51;;;;;;;55.10;24.55;;;7.50;88.30;;;;;;5086010;28;20089;-68
2021/11/17 05:46:32;;;;;;;55.60;24.23;;;7.40;88.20;;;;;;5088144;28;20024;-69
2021/11/17 05:49:20;;;;;;;54.70;24.88;;;7.50;88.30;;;;;;5070055;28;20427;-69
2021/11/17 05:51:58;;;;;;;57.30;24.65;;;7.50;88.40;;;;;;5078032;28;20028;-69
2021/11/17 05:54:54;;;;;;;53.85;22.52;;;7.50;88.30;;;;;;5055332;28;20028;-68
2021/11/17 05:57:29;;;;;;;56.65;24.00;;;7.50;88.30;;;;;;5073027;28;20020;-69
2021/11/17 06:00:14;;;;;;;56.72;23.65;;;7.50;88.20;;;;;;5087990;28;20138;-69
2021/11/17 06:02:42;;;;;;;58.55;25.25;;;7.50;88.30;;;;;;5072573;28;20086;-69
2021/11/17 06:05:07;;;;;;;61.33;25.88;;;7.50;88.30;;;;;;5070431;28;20411;-70
2021/11/17 06:07:33;;;;;;;51.95;24.58;;;7.50;88.40;;;;;;5088580;28;20078;-70
2021/11/17 06:10:29;;;;;;;55.15;23.20;;;7.50;88.30;;;;;;5088945;28;20379;-70
2021/11/17 06:12:54;;;;;;;54.78;23.10;;;7.50;88.40;;;;;;5059265;28;20094;-69
2021/11/17 06:15:21;;;;;;;56.35;24.40;;;7.50;88.30;;;;;;5088438;28;20056;-70
2021/11/17 06:17:49;;;;;;;60.40;24.67;;;7.50;88.30;;;;;;5088455;28;20028;-70
2021/11/17 06:20:17;;;;;;;58.33;23.50;;;7.50;88.30;;;;;;5091605;28;20055;-68
2021/11/17 06:22:51;;;;;;;57.47;24.20;;;7.50;88.40;;;;;;5092346;28;20052;-68
2021/11/17 06:25:17;;;;;;;54.38;23.05;;;7.50;88.40;;;;;;5091635;28;20032;-68
2021/11/17 06:27:48;;;;;;;56.08;24.17;;;7.50;88.30;;;;;;5092067;28;20423;-68
2021/11/17 06:30:17;;;;;;;58.08;24.98;;;7.50;88.40;;;;;;5073032;28;20031;-68
2021/11/17 06:32:44;;;;;;;58.05;24.48;;;7.50;88.40;;;;;;5073885;28;20063;-68
2021/11/17 06:35:10;;;;;;;55.03;22.98;;;7.60;88.40;;;;;;5091812;28;20409;-68
2021/11/17 06:37:37;;;;;;;58.65;24.35;;;7.60;88.40;;;;;;5091947;28;20028;-68
2021/11/17 06:40:08;;;;;;;57.42;23.25;;;7.60;88.40;;;;;;5091262;28;20437;-68
2021/11/17 06:42:37;;;;;;;56.00;25.20;;;7.60;88.40;;;;;;5074168;28;20020;-68
2021/11/17 06:45:07;;;;;;;55.95;24.13;;;7.60;88.40;;;;;;5091221;28;20098;-68
2021/11/17 06:47:32;;;;;;;54.53;24.58;;;7.60;88.50;;;;;;5091582;28;20032;-69
2021/11/17 06:49:58;;;;;;;56.63;24.40;;;7.60;88.50;;;;;;5091333;28;20028;-68
2021/11/17 06:52:24;;;;;;;60.85;25.40;;;7.50;88.50;;;;;;5091907;28;20028;-69
2021/11/17 06:54:51;;;;;;;53.78;24.88;;;7.60;88.60;;;;;;5091365;28;20049;-68
2021/11/17 06:57:18;;;;;;;51.42;24.05;;;7.50;88.60;;;;;;5073915;28;20032;-68
2021/11/17 06:59:45;;;;;;;54.67;23.55;;;7.50;88.70;;;;;;5090000;28;20441;-68
2021/11/17 07:02:11;;;;;;;53.97;24.75;;;7.50;88.80;;;;;;5091174;28;20542;-68
2021/11/17 07:04:37;;;;;;;59.33;25.50;;;7.60;88.90;;;;;;5073527;28;20103;-68
2021/11/17 07:07:05;;;;;;;54.40;24.60;;;7.60;88.80;;;;;;5091739;28;20127;-69
2021/11/17 07:09:31;;;;;;;56.03;24.80;;;7.60;88.80;;;;;;5073165;28;20078;-69
2021/11/17 07:11:56;;;;;;;51.60;23.08;;;7.60;88.80;;;;;;5073477;28;20066;-68
2021/11/17 07:14:22;;;;;;;50.72;22.50;;;7.60;88.70;;;;;;5090911;28;20713;-68
2021/11/17 07:16:50;;;;;;;52.10;23.25;;;7.60;88.80;;;;;;5090719;28;20046;-68
2021/11/17 07:19:16;;;;;;;58.60;25.20;;;7.60;88.90;;;;;;5090604;28;20107;-68
2021/11/17 07:21:43;;;;;;;56.63;24.30;;;7.60;88.80;;;;;;5091227;28;20489;-68
2021/11/17 07:24:10;;;;;;;60.97;26.25;;;7.60;88.80;;;;;;5091656;28;20028;-68
2021/11/17 07:26:36;;;;;;;62.80;25.55;;;7.60;88.80;;;;;;5091296;28;20566;-68
2021/11/17 07:29:03;;;;;;;58.17;25.73;;;7.60;88.80;;;;;;5091121;28;20028;-68
2021/11/17 07:31:29;;;;;;;60.28;23.80;;;7.60;88.80;;;;;;5087506;28;20032;-68
2021/11/17 07:33:55;;;;;;;52.17;23.70;;;7.60;88.80;;;;;;5089468;28;20032;-68
2021/11/17 07:36:21;;;;;;;50.63;22.23;;;7.60;88.90;;;;;;5089965;28;20479;-69
2021/11/17 07:38:48;;;;;;;55.95;25.85;;;7.60;89.00;;;;;;5090348;28;20024;-68
2021/11/17 07:41:14;;;;;;;54.47;23.80;;;7.60;89.00;;;;;;5090310;28;20024;-68
2021/11/17 07:43:40;;;;;;;61.17;25.30;;;7.70;89.10;;;;;;5072436;28;20031;-68
2021/11/17 07:46:05;;;;;;;61.13;25.75;;;7.70;89.00;;;;;;5089772;28;20032;-68
2021/11/17 07:48:32;;;;;;;61.03;25.63;;;7.70;89.00;;;;;;5090368;28;20039;-69
2021/11/17 07:50:59;;;;;;;63.83;25.42;;;7.70;89.00;;;;;;5091381;28;20028;-68
2021/11/17 07:53:26;;;;;;;55.47;24.35;;;7.70;89.10;;;;;;5061432;28;20071;-68
2021/11/17 07:55:54;;;;;;;56.97;25.40;;;7.70;89.20;;;;;;5086612;28;20451;-68
2021/11/17 07:58:23;;;;;;;60.47;25.25;;;7.70;89.30;;;;;;5089869;28;20502;-68
2021/11/17 08:00:52;;;;;;;55.33;22.42;;;7.70;89.20;;;;;;5068468;28;20027;-68
2021/11/17 08:03:20;;;;;;;56.83;24.95;;;7.80;89.20;;;;;;5080943;28;20111;-68
2021/11/17 08:05:48;;;;;;;56.85;24.42;;;7.80;89.10;;;;;;5087004;28;20021;-67
2021/11/17 08:08:16;;;;;;;66.63;27.42;;;7.80;89.20;;;;;;5086141;28;20025;-68
2021/11/17 08:10:42;;;;;;;61.67;25.55;;;7.80;89.10;;;;;;5082968;28;20122;-68
2021/11/17 08:13:08;;;;;;;57.10;25.42;;;7.90;89.20;;;;;;5078078;28;20024;-68
2021/11/17 08:15:35;;;;;;;66.60;27.63;;;7.80;89.30;;;;;;5086884;28;20055;-69
2021/11/17 08:18:00;;;;;;;70.65;29.10;;;7.90;89.30;;;;;;5090802;28;20050;-68
2021/11/17 08:20:27;;;;;;;65.00;27.95;;;7.90;89.40;;;;;;5086114;28;20035;-68
2021/11/17 08:22:54;;;;;;;62.53;28.55;;;7.90;89.40;;;;;;5088745;28;20135;-68
2021/11/17 08:25:23;;;;;;;66.35;27.63;;;7.90;89.50;;;;;;5086497;28;20020;-69
2021/11/17 08:27:50;;;;;;;66.63;27.80;;;7.90;89.50;;;;;;5081774;28;20490;-69
2021/11/17 08:30:18;;;;;;;61.83;27.17;;;8.00;89.50;;;;;;5088412;28;20035;-69
2021/11/17 08:32:45;;;;;;;71.05;27.92;;;8.00;89.60;;;;;;5109695;28;20397;-69
2021/11/17 08:35:14;;;;;;;71.55;29.48;;;8.00;89.60;;;;;;5085587;28;20028;-68
2021/11/17 08:37:40;;;;;;;70.65;29.35;;;8.00;89.60;;;;;;5066829;28;20261;-68
2021/11/17 08:40:15;;;;;;;63.17;26.42;;;8.00;89.70;;;;;;5101952;28;20026;-68
2021/11/17 08:42:41;;;;;;;72.97;29.08;;;8.00;89.70;;;;;;5102419;28;20043;-68
2021/11/17 08:45:09;;;;;;;73.45;31.63;;;8.00;89.60;;;;;;5077738;28;20432;-68
2021/11/17 08:47:35;;;;;;;87.47;33.47;;;8.00;89.90;;;;;;5101744;28;20060;-68
2021/11/17 08:50:02;;;;;;;74.00;30.23;;;8.10;90.00;;;;;;5070225;28;20486;-68
2021/11/17 08:52:28;;;;;;;84.40;31.38;;;8.10;90.00;;;;;;5087992;28;20517;-68
2021/11/17 08:54:55;;;;;;;83.72;33.58;;;8.10;90.00;;;;;;5107296;28;20012;-68
2021/11/17 08:57:21;;;;;;;72.32;28.88;;;8.10;90.10;;;;;;5088501;28;20535;-69
2021/11/17 08:59:48;;;;;;;77.88;31.38;;;8.10;90.10;;;;;;5070441;28;20032;-68
2021/11/17 09:02:14;;;;;;;70.15;28.17;;;8.20;90.10;;;;;;5089052;28;20035;-69
2021/11/17 09:04:41;;;;;;;75.43;30.92;;;8.20;90.10;;;;;;5088482;28;20028;-68
2021/11/17 09:07:07;;;;;;;85.70;33.58;;;8.20;90.10;;;;;;5070020;28;20478;-68
2021/11/17 09:09:33;;;;;;;71.00;29.63;;;8.20;90.10;;;;;;5081135;28;20078;-68
2021/11/17 09:11:59;;;;;;;79.80;32.33;;;8.30;90.10;;;;;;5079766;28;20087;-69
2021/11/17 09:14:25;;;;;;;86.05;33.17;;;8.30;90.10;;;;;;5086271;28;20074;-68
2021/11/17 09:16:51;;;;;;;91.65;33.08;;;8.30;90.10;;;;;;5098865;28;20028;-69
2021/11/17 09:19:17;;;;;;;88.15;34.45;;;8.30;90.20;;;;;;5083786;28;20474;-68
2021/11/17 09:21:45;;;;;;;87.25;32.95;;;8.20;90.20;;;;;;5069962;28;20095;-68
2021/11/17 09:24:15;;;;;;;75.43;29.70;;;8.30;90.30;;;;;;5088047;28;20055;-67
2021/11/17 09:26:41;;;;;;;87.82;32.72;;;8.30;90.30;;;;;;5069997;28;20036;-67
2021/11/17 09:29:07;;;;;;;82.10;32.08;;;8.30;90.40;;;;;;5068986;28;20077;-67
2021/11/17 09:31:34;;;;;;;92.35;35.47;;;8.30;90.40;;;;;;5077657;28;20078;-68
2021/11/17 09:34:00;;;;;;;83.78;31.60;;;8.30;90.50;;;;;;5084249;28;20119;-68
2021/11/17 09:36:28;;;;;;;96.07;35.20;;;8.30;90.60;;;;;;5087318;28;20095;-68
2021/11/17 09:38:55;;;;;;;95.45;33.65;;;8.30;90.60;;;;;;5086288;28;20119;-69
2021/11/17 09:41:34;;;;;;;85.60;31.90;;;8.30;90.60;;;;;;5088047;28;20032;-69
2021/11/17 09:44:07;;;;;;;76.75;30.40;;;8.40;90.70;;;;;;5086420;28;20035;-69
2021/11/17 09:46:35;;;;;;;84.40;31.05;;;8.40;90.70;;;;;;5068844;28;20036;-69
2021/11/17 09:49:26;;;;;;;88.80;33.72;;;8.40;90.70;;;;;;5075965;28;20028;-68
2021/11/17 09:51:57;;;;;;;87.32;33.30;;;8.40;90.60;;;;;;5072642;28;20111;-69
2021/11/17 09:54:27;;;;;;;89.25;32.88;;;8.50;90.70;;;;;;5083887;28;20024;-69
2021/11/17 09:57:03;;;;;;;84.93;32.05;;;8.40;90.70;;;;;;5069876;28;20047;-69
2021/11/17 09:59:47;;;;;;;89.13;31.45;;;8.50;90.80;;;;;;5088155;28;20471;-69
2021/11/17 10:02:48;;;;;;;71.15;28.58;;;8.50;90.90;;;;;;5089544;28;20036;-69
2021/11/17 10:05:34;;;;;;;68.07;27.23;;;8.50;90.80;;;;;;5085637;28;20094;-69
2021/11/17 10:13:46;;;;;;;80.88;31.33;;;8.60;90.80;;;;;;5088856;28;20383;-69
2021/11/17 10:16:12;;;;;;;69.68;28.52;;;8.60;90.90;;;;;;5068173;28;20029;-69
2021/11/17 10:18:42;;;;;;;71.28;29.25;;;8.60;90.90;;;;;;5069186;28;20491;-69
2021/11/17 10:21:28;;;;;;;66.82;27.35;;;8.60;91.00;;;;;;5052869;28;20028;-69
2021/11/17 10:23:58;;;;;;;79.22;31.33;;;8.60;91.00;;;;;;5064493;28;20017;-69
2021/11/17 10:26:25;;;;;;;69.53;28.63;;;8.60;91.00;;;;;;5055596;28;20040;-69
2021/11/17 10:29:21;;;;;;;73.75;31.20;;;8.60;91.00;;;;;;5069086;28;20028;-69
2021/11/17 10:32:19;;;;;;;86.00;34.92;;;8.70;91.00;;;;;;5081532;28;20557;-69
2021/11/17 10:35:10;;;;;;;91.32;34.63;;;8.70;91.00;;;;;;5071159;28;20103;-69
2021/11/17 10:38:02;;;;;;;99.97;37.72;;;8.70;91.10;;;;;;5057006;28;20052;-69
2021/11/17 10:40:31;;;;;;;106.95;38.47;;;8.80;91.20;;;;;;5066881;28;20040;-69
2021/11/17 10:43:14;;;;;;;84.25;34.03;;;8.70;91.20;;;;;;5060549;28;20031;-69
2021/11/17 10:45:48;;;;;;;77.85;32.50;;;8.80;91.30;;;;;;5062976;28;20033;-69
2021/11/17 10:48:32;;;;;;;90.35;34.95;;;8.80;91.20;;;;;;5064973;28;20466;-69
2021/11/17 10:51:15;;;;;;;97.13;36.28;;;8.90;91.40;;;;;;5070428;28;20028;-69
2021/11/17 10:53:41;;;;;;;88.18;35.28;;;9.00;91.40;;;;;;5070672;28;20107;-69
2021/11/17 10:56:10;;;;;;;88.90;36.55;;;9.00;91.30;;;;;;5070935;28;20116;-70
2021/11/17 10:58:38;;;;;;;84.30;33.90;;;9.10;91.30;;;;;;5069875;28;20115;-69
2021/11/17 11:01:13;;;;;;;82.88;33.10;;;9.10;91.30;;;;;;5070555;28;20487;-69
2021/11/17 11:03:44;;;;;;;92.70;35.72;;;9.10;91.30;;;;;;5069902;28;20028;-69
2021/11/17 11:06:13;;;;;;;92.28;34.97;;;9.10;91.30;;;;;;5049888;28;20086;-69
2021/11/17 11:09:03;;;;;;;84.50;32.42;;;9.20;91.30;;;;;;5069026;28;20059;-68
2021/11/17 11:11:31;;;;;;;82.07;35.08;;;9.20;91.30;;;;;;5069538;28;20024;-68
2021/11/17 11:14:11;;;;;;;97.22;36.63;;;9.30;91.30;;;;;;5074770;28;20048;-68
2021/11/17 11:16:42;;;;;;;79.60;31.58;;;9.30;91.30;;;;;;5051848;28;20111;-69
2021/11/17 11:19:12;;;;;;;91.97;37.55;;;9.40;91.30;;;;;;5068456;28;20027;-69
2021/11/17 11:21:40;;;;;;;91.40;36.95;;;9.40;91.30;;;;;;5070707;28;20040;-69
2021/11/17 11:24:11;;;;;;;106.45;40.08;;;9.40;91.30;;;;;;5070877;28;20024;-69
2021/11/17 11:26:58;;;;;;;90.45;37.13;;;9.50;91.30;;;;;;5068355;28;20033;-69
2021/11/17 11:29:33;;;;;;;95.78;38.05;;;9.50;91.30;;;;;;5067149;28;20349;-68
2021/11/17 11:32:00;;;;;;;89.63;36.92;;;9.60;91.40;;;;;;5070118;28;20511;-69
2021/11/17 11:34:38;;;;;;;98.03;37.10;;;9.60;91.30;;;;;;5076983;28;20025;-68
2021/11/17 11:37:25;;;;;;;93.68;35.92;;;9.60;91.30;;;;;;5065657;28;20044;-68
2021/11/17 11:40:26;;;;;;;91.70;35.92;;;9.70;91.30;;;;;;5044287;28;20045;-69
2021/11/17 11:43:22;;;;;;;98.60;38.40;;;9.70;91.30;;;;;;5052340;28;20566;-72
2021/11/17 11:45:50;;;;;;;92.32;36.83;;;9.70;91.30;;;;;;5065184;28;20060;-74
2021/11/17 11:48:25;;;;;;;95.15;37.17;;;9.70;91.30;;;;;;5068363;28;20048;-74
2021/11/17 11:51:26;;;;;;;87.70;35.33;;;9.80;91.30;;;;;;5057330;28;20021;-75
2021/11/17 11:53:57;;;;;;;88.30;37.60;;;9.80;91.30;;;;;;5066306;28;20025;-75
2021/11/17 11:56:55;;;;;;;84.05;35.78;;;9.80;91.30;;;;;;5070284;28;20102;-75
2021/11/17 11:59:28;;;;;;;92.22;37.80;;;9.90;91.40;;;;;;5035298;28;20444;-74
2021/11/17 12:02:07;;;;;;;96.28;39.40;;;9.90;91.30;;;;;;5068495;28;20066;-73
2021/11/17 12:04:33;;;;;;;100.00;39.72;;;10.00;91.40;;;;;;5069109;28;20040;-73
2021/11/17 12:07:07;;;;;;;84.07;35.92;;;10.00;91.50;;;;;;5050439;28;20029;-74
2021/11/17 12:09:37;;;;;;;104.57;40.85;;;10.00;91.50;;;;;;5060905;28;20037;-74
2021/11/17 12:12:27;;;;;;;88.20;38.58;;;10.10;91.60;;;;;;5064050;28;20063;-74
2021/11/17 12:15:30;;;;;;;87.72;36.90;;;10.20;91.50;;;;;;5079048;28;20054;-74
2021/11/17 12:18:05;;;;;;;79.10;35.28;;;10.30;91.40;;;;;;5086129;28;20032;-74
2021/11/17 12:20:34;;;;;;;83.63;34.75;;;10.20;91.40;;;;;;5083466;28;20028;-74
2021/11/17 12:23:17;;;;;;;75.75;34.30;;;10.30;91.40;;;;;;5090529;28;20765;-74
2021/11/17 12:25:54;;;;;;;78.20;34.00;;;10.30;91.40;;;;;;5088315;28;20139;-73
2021/11/17 12:28:20;;;;;;;78.93;35.17;;;10.30;91.30;;;;;;5064556;28;20406;-74
2021/11/17 12:31:06;;;;;;;70.85;31.92;;;10.40;91.50;;;;;;5066831;28;20020;-74
2021/11/17 12:33:42;;;;;;;80.30;34.45;;;10.50;91.50;;;;;;5085621;28;20035;-73
2021/11/17 12:36:10;;;;;;;66.32;32.53;;;10.60;91.40;;;;;;5087310;28;20032;-73
2021/11/17 12:38:37;;;;;;;66.45;31.75;;;10.60;91.30;;;;;;5088193;28;20036;-74
2021/11/17 12:41:36;;;;;;;69.28;33.65;;;10.60;91.30;;;;;;5080153;28;20020;-72
2021/11/17 12:44:05;;;;;;;62.85;29.08;;;10.80;91.30;;;;;;5069633;28;20047;-72
2021/11/17 12:46:46;;;;;;;57.33;29.33;;;11.00;91.10;;;;;;5067706;28;20478;-72
2021/11/17 12:49:18;;;;;;;56.30;30.42;;;11.00;91.00;;;;;;5073101;28;20032;-72
2021/11/17 12:52:12;;;;;;;66.70;30.58;;;11.20;90.90;;;;;;5088064;28;20027;-72
2021/11/17 12:54:50;;;;;;;51.70;25.58;;;11.50;90.40;;;;;;5081736;28;20020;-72
2021/11/17 12:57:30;;;;;;;51.75;27.45;;;11.60;90.20;;;;;;5066570;28;20031;-72
2021/11/17 13:00:19;;;;;;;50.10;26.63;;;11.50;90.20;;;;;;5050216;28;20040;-73
2021/11/17 13:02:57;;;;;;;53.45;27.08;;;11.40;90.20;;;;;;5074343;28;20044;-72
2021/11/17 13:05:26;;;;;;;56.17;27.65;;;11.30;90.30;;;;;;5087077;28;20055;-72
2021/11/17 13:08:30;;;;;;;49.05;28.27;;;11.20;90.40;;;;;;5085586;28;20063;-72
2021/11/17 13:11:12;;;;;;;48.80;25.70;;;11.10;90.40;;;;;;5074421;28;20098;-72
2021/11/17 13:13:43;;;;;;;56.75;25.15;;;11.10;90.50;;;;;;5082253;28;20028;-73
2021/11/17 13:16:39;;;;;;;56.53;27.80;;;11.00;90.60;;;;;;5088152;28;20036;-74
2021/11/17 13:19:19;;;;;;;46.90;24.05;;;11.00;90.50;;;;;;5083791;28;20020;-74
2021/11/17 13:22:02;;;;;;;50.03;26.70;;;11.00;90.60;;;;;;5069144;28;20047;-75
2021/11/17 13:24:33;;;;;;;;;;;11.50;91.00;;;;;;5089181;28;20056;-74
2021/11/17 13:27:08;;;;;;;44.50;23.45;;;12.50;90.20;;;;;;5087132;28;19962;-75
2021/11/17 13:29:58;;;;;;;43.28;21.85;;;13.60;86.40;;;;;;5105777;28;20438;-72
2021/11/17 13:32:37;;;;;;;39.22;23.13;;;14.30;84.50;;;;;;5037264;28;20123;-74
2021/11/17 13:35:40;;;;;;;37.30;22.10;;;14.50;82.80;;;;;;5089328;28;20039;-75
2021/11/17 13:38:19;;;;;;;33.47;19.30;;;14.80;82.50;;;;;;5064197;28;20060;-74
2021/11/17 13:40:48;;;;;;;30.63;19.83;;;15.30;81.30;;;;;;5093657;28;20042;-74
2021/11/17 13:43:15;;;;;;;37.60;22.75;;;15.80;80.00;;;;;;5089089;28;20036;-75
2021/11/17 13:45:45;;;;;;;35.03;21.55;;;16.20;78.30;;;;;;5088256;28;20116;-74
2021/11/17 13:48:13;;;;;;;34.28;20.30;;;16.10;77.90;;;;;;5076253;28;20077;-74
2021/11/17 13:50:40;;;;;;;38.45;19.75;;;15.90;78.30;;;;;;5091751;28;20568;-74
2021/11/17 13:53:08;;;;;;;33.30;18.88;;;15.60;79.00;;;;;;5093869;28;20035;-73
2021/11/17 13:55:44;;;;;;;28.40;17.10;;;15.30;78.90;;;;;;5086553;28;20039;-73
2021/11/17 13:58:10;;;;;;;31.90;17.88;;;15.10;79.50;;;;;;5093421;28;20024;-73
2021/11/17 14:00:39;;;;;;;27.88;16.25;;;14.80;79.30;;;;;;5094454;28;20020;-73
2021/11/17 14:03:06;;;;;;;28.25;16.00;;;14.40;80.20;;;;;;5094961;28;20028;-73
2021/11/17 14:05:34;;;;;;;27.60;15.75;;;14.00;81.00;;;;;;5093941;28;20603;-73
2021/11/17 14:08:00;;;;;;;24.70;14.10;;;13.70;81.70;;;;;;5074747;28;20020;-73
2021/11/17 14:10:30;;;;;;;20.60;11.80;;;13.40;82.60;;;;;;5094131;28;20059;-73
2021/11/17 14:12:56;;;;;;;23.25;11.75;;;13.30;83.00;;;;;;5093386;28;20024;-73
2021/11/17 14:15:22;;;;;;;20.60;10.98;;;13.30;83.30;;;;;;5074389;28;20048;-74
2021/11/17 14:17:50;;;;;;;22.75;9.32;;;13.50;83.20;;;;;;5093847;28;20028;-73
2021/11/17 14:20:17;;;;;;;19.95;7.60;;;13.70;82.20;;;;;;5093540;28;20024;-73
2021/11/17 14:22:46;;;;;;;15.80;7.35;;;13.70;81.30;;;;;;5092186;28;20027;-74
2021/11/17 14:25:17;;;;;;;20.85;6.55;;;13.50;80.60;;;;;;5074936;28;20119;-76
2021/11/17 14:27:48;;;;;;;13.77;5.50;;;13.30;80.00;;;;;;5094125;28;20027;-73
2021/11/17 14:30:20;;;;;;;16.63;5.13;;;13.00;81.20;;;;;;5089193;28;20032;-73
2021/11/17 14:32:50;;;;;;;13.65;5.03;;;12.90;81.50;;;;;;5093442;28;20023;-73
2021/11/17 14:35:17;;;;;;;15.38;4.75;;;12.80;81.60;;;;;;5093786;28;20039;-73
2021/11/17 14:37:50;;;;;;;17.10;5.57;;;12.80;81.30;;;;;;5093185;28;20510;-73
2021/11/17 14:40:18;;;;;;;17.40;4.97;;;12.70;81.20;;;;;;5088601;28;20039;-72
2021/11/17 14:42:47;;;;;;;14.63;4.32;;;12.80;81.20;;;;;;5066468;28;20031;-72
2021/11/17 14:45:17;;;;;;;16.88;4.80;;;12.70;81.10;;;;;;5067935;28;20480;-74
2021/11/17 14:47:43;;;;;;;15.50;4.10;;;12.60;81.20;;;;;;5084717;28;20404;-69
2021/11/17 14:50:10;;;;;;;14.95;3.65;;;12.50;81.20;;;;;;5089118;28;20382;-69
2021/11/17 14:52:37;;;;;;;18.40;4.38;;;12.50;81.30;;;;;;5084846;28;20190;-69
2021/11/17 14:55:04;;;;;;;13.13;3.85;;;12.40;81.50;;;;;;5084329;28;20347;-69
2021/11/17 14:57:29;;;;;;;17.38;4.03;;;12.30;81.20;;;;;;5087969;28;20114;-70
2021/11/17 14:59:57;;;;;;;15.95;3.95;;;12.30;81.30;;;;;;5088367;28;20196;-70
2021/11/17 15:02:23;;;;;;;15.07;4.20;;;12.30;81.10;;;;;;5086410;28;20081;-69
2021/11/17 15:04:49;;;;;;;8.48;3.13;;;12.20;81.20;;;;;;5088344;28;20513;-69
2021/11/17 15:07:15;;;;;;;15.05;3.58;;;12.20;81.50;;;;;;5088930;28;20032;-69
2021/11/17 15:09:41;;;;;;;17.20;3.33;;;12.10;81.50;;;;;;5088459;28;20031;-68
2021/11/17 15:12:35;;;;;;;13.27;3.60;;;12.00;81.20;;;;;;5086354;28;20028;-69
2021/11/17 15:15:04;;;;;;;14.00;2.88;;;11.90;81.20;;;;;;5085064;28;20572;-68
2021/11/17 15:17:29;;;;;;;16.38;4.10;;;11.90;81.10;;;;;;5079813;28;20571;-69
2021/11/17 15:19:55;;;;;;;14.95;3.92;;;11.80;80.90;;;;;;5087618;28;20032;-68
2021/11/17 15:22:23;;;;;;;13.77;3.63;;;11.80;80.70;;;;;;5091381;28;20032;-69
2021/11/17 15:24:49;;;;;;;13.55;3.70;;;11.70;80.80;;;;;;5069514;28;20039;-68
2021/11/17 15:27:42;;;;;;;16.85;3.05;;;11.70;80.80;;;;;;5088935;28;20554;-68
2021/11/17 15:30:16;;;;;;;10.98;2.45;;;11.60;81.00;;;;;;5085505;28;20102;-67
2021/11/17 15:32:43;;;;;;;12.63;2.70;;;11.50;80.90;;;;;;5087486;28;20082;-67
2021/11/17 15:35:10;;;;;;;13.15;2.70;;;11.40;80.90;;;;;;5066288;28;20036;-69
2021/11/17 15:37:36;;;;;;;10.68;2.30;;;11.40;81.00;;;;;;5088160;28;20032;-69
2021/11/17 15:40:11;;;;;;;13.60;2.75;;;11.30;80.70;;;;;;5086037;28;20016;-68
2021/11/17 15:42:37;;;;;;;12.55;2.53;;;11.30;80.70;;;;;;5087889;28;20055;-68
2021/11/17 15:45:03;;;;;;;14.30;3.28;;;11.20;80.60;;;;;;5069461;28;20059;-69
2021/11/17 15:47:29;;;;;;;14.95;3.33;;;11.10;81.00;;;;;;5088189;28;20074;-70